Buoy 46762

sailwx.info

Track history (hours):
 
Tides and Currents Weather Stations Pressure Air Temp Water Temp Dewpoint Dewpoint Depression Visibility Wind Speed Wind Dir Waves Ship Positions

Drifting buoy 46762

Last reported at 2015-Aug-30 14:10 UTC. Time now 2015-Aug-30 15:59 UTC.
Position N 53°31' W 157°48'.

Barometer 1008.2 mb
Water temperature 12.8 ° C

Date/timePositionNaut miles runAvg speedWind from/ knotsBaromVisibWave heightAir tempDewpointWater temp
2015-Aug-30 14:10N 53°31' W 157°48'3 0.3 1008.2 12.8
2015-Aug-30 04:10N 53°33' W 157°50'1 0.5 1006.8 12.8
2015-Aug-30 02:10N 53°34' W 157°51'4 1.8 1007.1 12.9
2015-Aug-30 00:10N 53°34' W 157°57'2 0.6 1007.7 13.0
2015-Aug-29 21:10N 53°36' W 157°59'3 0.6 1008.2 13.0
2015-Aug-29 16:10N 53°36' W 158°04'1 0.7 1011.8 13.0
2015-Aug-29 15:10N 53°36' W 158°05'2 0.4 1012.4 13.0
2015-Aug-29 11:10N 53°37' W 158°07'0 0.0 1015.3 13.1
2015-Aug-29 10:10N 53°37' W 158°07'3 0.5 1016.6 13.1
2015-Aug-29 04:10N 53°39' W 158°11'3 0.4 1020.5 13.2
2015-Aug-28 21:10N 53°41' W 158°14'1 0.5 1023.5 13.2
2015-Aug-28 20:10N 53°41' W 158°14'1 0.5 1023.5 13.2
2015-Aug-28 17:10N 53°43' W 158°15'0 0.2 1024.0 13.2
2015-Aug-28 15:10N 53°43' W 158°15'1 0.4 1024.1 13.2
2015-Aug-28 13:10N 53°43' W 158°16'1 1.5 1023.9 13.2
2015-Aug-28 12:10N 53°45' W 158°17'1 0.6 1024.7 13.3
2015-Aug-28 11:10N 53°45' W 158°17'1 0.3 1024.9 13.3
2015-Aug-28 07:10N 53°46' W 158°17'1 0.4 1025.0 13.4
2015-Aug-28 05:10N 53°46' W 158°18'2 1.6 1024.1 13.5
2015-Aug-28 04:10N 53°48' W 158°18'0 0.4 1024.1 13.5
2015-Aug-28 03:10N 53°47' W 158°19'0 0.0 1024.7 13.5
2015-Aug-28 02:10N 53°47' W 158°19'0 0.0 1024.9 13.5
2015-Aug-28 01:10N 53°47' W 158°19'2 0.8 1025.4 13.5
2015-Aug-27 23:10N 53°49' W 158°20'2 2.2 1026.2 13.5
2015-Aug-27 22:10N 53°51' W 158°22'3 0.6 1026.6 13.4
2015-Aug-27 17:10N 53°51' W 158°27'1 0.4 1027.6 13.2
2015-Aug-27 15:10N 53°51' W 158°28'1 0.6 1027.8 13.2
2015-Aug-27 13:10N 53°52' W 158°27'1 0.3 1028.3 13.3
2015-Aug-27 09:10N 53°52' W 158°29'4 0.4 1028.3 13.3
2015-Aug-27 00:10N 53°54' W 158°34'1 0.6 1029.0 13.4
2015-Aug-26 23:10N 53°55' W 158°35'3 0.5 1028.9 13.4
2015-Aug-26 17:10N 53°57' W 158°38'1 0.3 1029.8 13.3
2015-Aug-26 14:10N 53°57' W 158°39'2 1.9 1029.8 13.3
2015-Aug-26 13:10N 53°58' W 158°42'0 0.0 1030.2 13.3
2015-Aug-26 12:10N 53°58' W 158°42'1 0.2 1030.2 13.3
2015-Aug-26 05:10N 53°59' W 158°44'1 0.2 1030.2 13.4
2015-Aug-26 02:10N 53°59' W 158°44'1 0.6 1030.6 13.4
2015-Aug-26 01:10N 53°60' W 158°45'0 0.4 1030.8 13.4
2015-Aug-26 00:10N 53°60' W 158°44'0 0.1 1030.9 13.3
2015-Aug-25 23:10N 53°60' W 158°44'1 0.4 1031.0 13.3
2015-Aug-25 20:10N 54°00' W 158°45'1 0.6 1030.4 13.3
2015-Aug-25 19:10N 53°60' W 158°46'1 0.6 1030.2 13.4
2015-Aug-25 17:10N 54°01' W 158°46'2 0.9 1030.0 13.4
2015-Aug-25 15:10N 54°03' W 158°47'1 0.8 1029.1 13.4
2015-Aug-25 14:10N 54°02' W 158°48'2 0.5 1029.7 13.4
2015-Aug-25 11:10N 54°03' W 158°49'1 0.2 1029.2 13.5
2015-Aug-25 08:10N 54°03' W 158°49'2 1.2 1028.8 13.5
2015-Aug-25 06:10N 54°04' W 158°45'0 0.1 1028.1 13.6
2015-Aug-25 04:10N 54°04' W 158°45'2 2.1 1027.7 13.6
2015-Aug-25 03:10N 54°06' W 158°44'0 0.0 1027.6 13.6
2015-Aug-25 02:10N 54°06' W 158°44'1 1.1 1027.5 13.6
2015-Aug-25 01:10N 54°07' W 158°43'1 0.5 1027.4 13.6
2015-Aug-25 00:10N 54°06' W 158°44'2 0.2 1027.1 13.6
2015-Aug-24 16:10N 54°07' W 158°41'2 2.1 1025.3 13.2
2015-Aug-24 15:10N 54°09' W 158°38'3 0.9 1024.8 13.2
2015-Aug-24 12:10N 54°11' W 158°40'1 0.8 1024.7 13.2
2015-Aug-24 11:10N 54°11' W 158°41'4 0.6 1024.3 13.2
2015-Aug-24 04:10N 54°12' W 158°34'6 1.1 1022.5 13.3
2015-Aug-23 22:10N 54°18' W 158°30'3 0.6 1022.3 13.2
2015-Aug-23 17:10N 54°19' W 158°25'0 0.3 1021.9 13.2
2015-Aug-23 16:10N 54°19' W 158°25'4 2.0 1021.4 13.2
2015-Aug-23 14:10N 54°22' W 158°21'4 2.0 1021.7 13.2
2015-Aug-23 12:10N 54°26' W 158°20'0 0.0 1021.5 13.3
2015-Aug-23 11:10N 54°26' W 158°20'1 0.2 1021.6 13.3
2015-Aug-23 06:10N 54°26' W 158°19'4 0.8 1021.8 13.3
2015-Aug-23 01:10N 54°28' W 158°13'3 1.4 1021.6 13.3
2015-Aug-22 23:10N 54°30' W 158°10'7 1.0 1022.0 13.3
2015-Aug-22 16:10N 54°36' W 158°04'6 0.7 1021.7 13.2
2015-Aug-22 08:10N 54°41' W 157°57'10 1.2 1021.5 13.2
2015-Aug-22 00:10N 54°50' W 157°50'0 0.0 1018.9 13.0
2015-Aug-21 23:10N 54°50' W 157°50'2 0.6 1018.5 13.0
2015-Aug-21 20:10N 54°51' W 157°50'1 1.4 1017.3 13.1
2015-Aug-21 19:10N 54°52' W 157°49'1 0.6 1016.8 13.1
2015-Aug-21 18:10N 54°52' W 157°48'3 0.8 1016.4 13.1
2015-Aug-21 14:10N 54°55' W 157°46'0 0.3 1013.6 13.2
2015-Aug-21 13:10N 54°55' W 157°46'4 0.3 1013.5 13.2
2015-Aug-20 21:10N 54°58' W 157°39'1 0.6 1019.8 13.2
2015-Aug-20 20:10N 54°57' W 157°39'2 0.7 1020.2 13.2
2015-Aug-20 17:10N 54°56' W 157°36'1 0.8 1021.5 13.1
2015-Aug-20 16:10N 54°56' W 157°34'1 0.5 1021.6 13.1
2015-Aug-20 15:10N 54°56' W 157°34'   1021.9 13.1
Track history (hours):
 
Tides and Currents Weather Stations Pressure Air Temp Water Temp Dewpoint Dewpoint Depression Visibility Wind Speed Wind Dir Waves Ship Positions

Drifting buoy 46762

Last reported at 2015-Aug-30 14:10 UTC. Time now 2015-Aug-30 15:59 UTC.
Position N 53°31' W 157°48'.

Barometer 1008.2 mb
Water temperature 12.8 ° C

Date/timePositionNaut miles runAvg speedWind from/ knotsBaromVisibWave heightAir tempDewpointWater temp
2015-Aug-30 14:10N 53°31' W 157°48'3 0.3 1008.2 12.8
2015-Aug-30 04:10N 53°33' W 157°50'1 0.5 1006.8 12.8
2015-Aug-30 02:10N 53°34' W 157°51'4 1.8 1007.1 12.9
2015-Aug-30 00:10N 53°34' W 157°57'2 0.6 1007.7 13.0
2015-Aug-29 21:10N 53°36' W 157°59'3 0.6 1008.2 13.0
2015-Aug-29 16:10N 53°36' W 158°04'1 0.7 1011.8 13.0
2015-Aug-29 15:10N 53°36' W 158°05'2 0.4 1012.4 13.0
2015-Aug-29 11:10N 53°37' W 158°07'0 0.0 1015.3 13.1
2015-Aug-29 10:10N 53°37' W 158°07'3 0.5 1016.6 13.1
2015-Aug-29 04:10N 53°39' W 158°11'3 0.4 1020.5 13.2
2015-Aug-28 21:10N 53°41' W 158°14'1 0.5 1023.5 13.2
2015-Aug-28 20:10N 53°41' W 158°14'1 0.5 1023.5 13.2
2015-Aug-28 17:10N 53°43' W 158°15'0 0.2 1024.0 13.2
2015-Aug-28 15:10N 53°43' W 158°15'1 0.4 1024.1 13.2
2015-Aug-28 13:10N 53°43' W 158°16'1 1.5 1023.9 13.2
2015-Aug-28 12:10N 53°45' W 158°17'1 0.6 1024.7 13.3
2015-Aug-28 11:10N 53°45' W 158°17'1 0.3 1024.9 13.3
2015-Aug-28 07:10N 53°46' W 158°17'1 0.4 1025.0 13.4
2015-Aug-28 05:10N 53°46' W 158°18'2 1.6 1024.1 13.5
2015-Aug-28 04:10N 53°48' W 158°18'0 0.4 1024.1 13.5
2015-Aug-28 03:10N 53°47' W 158°19'0 0.0 1024.7 13.5
2015-Aug-28 02:10N 53°47' W 158°19'0 0.0 1024.9 13.5
2015-Aug-28 01:10N 53°47' W 158°19'2 0.8 1025.4 13.5
2015-Aug-27 23:10N 53°49' W 158°20'2 2.2 1026.2 13.5
2015-Aug-27 22:10N 53°51' W 158°22'3 0.6 1026.6 13.4
2015-Aug-27 17:10N 53°51' W 158°27'1 0.4 1027.6 13.2
2015-Aug-27 15:10N 53°51' W 158°28'1 0.6 1027.8 13.2
2015-Aug-27 13:10N 53°52' W 158°27'1 0.3 1028.3 13.3
2015-Aug-27 09:10N 53°52' W 158°29'4 0.4 1028.3 13.3
2015-Aug-27 00:10N 53°54' W 158°34'1 0.6 1029.0 13.4
2015-Aug-26 23:10N 53°55' W 158°35'3 0.5 1028.9 13.4
2015-Aug-26 17:10N 53°57' W 158°38'1 0.3 1029.8 13.3
2015-Aug-26 14:10N 53°57' W 158°39'2 1.9 1029.8 13.3
2015-Aug-26 13:10N 53°58' W 158°42'0 0.0 1030.2 13.3
2015-Aug-26 12:10N 53°58' W 158°42'1 0.2 1030.2 13.3
2015-Aug-26 05:10N 53°59' W 158°44'1 0.2 1030.2 13.4
2015-Aug-26 02:10N 53°59' W 158°44'1 0.6 1030.6 13.4
2015-Aug-26 01:10N 53°60' W 158°45'0 0.4 1030.8 13.4
2015-Aug-26 00:10N 53°60' W 158°44'0 0.1 1030.9 13.3
2015-Aug-25 23:10N 53°60' W 158°44'1 0.4 1031.0 13.3
2015-Aug-25 20:10N 54°00' W 158°45'1 0.6 1030.4 13.3
2015-Aug-25 19:10N 53°60' W 158°46'1 0.6 1030.2 13.4
2015-Aug-25 17:10N 54°01' W 158°46'2 0.9 1030.0 13.4
2015-Aug-25 15:10N 54°03' W 158°47'1 0.8 1029.1 13.4
2015-Aug-25 14:10N 54°02' W 158°48'2 0.5 1029.7 13.4
2015-Aug-25 11:10N 54°03' W 158°49'1 0.2 1029.2 13.5
2015-Aug-25 08:10N 54°03' W 158°49'2 1.2 1028.8 13.5
2015-Aug-25 06:10N 54°04' W 158°45'0 0.1 1028.1 13.6
2015-Aug-25 04:10N 54°04' W 158°45'2 2.1 1027.7 13.6
2015-Aug-25 03:10N 54°06' W 158°44'0 0.0 1027.6 13.6
2015-Aug-25 02:10N 54°06' W 158°44'1 1.1 1027.5 13.6
2015-Aug-25 01:10N 54°07' W 158°43'1 0.5 1027.4 13.6
2015-Aug-25 00:10N 54°06' W 158°44'2 0.2 1027.1 13.6
2015-Aug-24 16:10N 54°07' W 158°41'2 2.1 1025.3 13.2
2015-Aug-24 15:10N 54°09' W 158°38'3 0.9 1024.8 13.2
2015-Aug-24 12:10N 54°11' W 158°40'1 0.8 1024.7 13.2
2015-Aug-24 11:10N 54°11' W 158°41'4 0.6 1024.3 13.2
2015-Aug-24 04:10N 54°12' W 158°34'6 1.1 1022.5 13.3
2015-Aug-23 22:10N 54°18' W 158°30'3 0.6 1022.3 13.2
2015-Aug-23 17:10N 54°19' W 158°25'0 0.3 1021.9 13.2
2015-Aug-23 16:10N 54°19' W 158°25'4 2.0 1021.4 13.2
2015-Aug-23 14:10N 54°22' W 158°21'4 2.0 1021.7 13.2
2015-Aug-23 12:10N 54°26' W 158°20'0 0.0 1021.5 13.3
2015-Aug-23 11:10N 54°26' W 158°20'1 0.2 1021.6 13.3
2015-Aug-23 06:10N 54°26' W 158°19'4 0.8 1021.8 13.3
2015-Aug-23 01:10N 54°28' W 158°13'3 1.4 1021.6 13.3
2015-Aug-22 23:10N 54°30' W 158°10'7 1.0 1022.0 13.3
2015-Aug-22 16:10N 54°36' W 158°04'6 0.7 1021.7 13.2
2015-Aug-22 08:10N 54°41' W 157°57'10 1.2 1021.5 13.2
2015-Aug-22 00:10N 54°50' W 157°50'0 0.0 1018.9 13.0
2015-Aug-21 23:10N 54°50' W 157°50'2 0.6 1018.5 13.0
2015-Aug-21 20:10N 54°51' W 157°50'1 1.4 1017.3 13.1
2015-Aug-21 19:10N 54°52' W 157°49'1 0.6 1016.8 13.1
2015-Aug-21 18:10N 54°52' W 157°48'3 0.8 1016.4 13.1
2015-Aug-21 14:10N 54°55' W 157°46'0 0.3 1013.6 13.2
2015-Aug-21 13:10N 54°55' W 157°46'4 0.3 1013.5 13.2
2015-Aug-20 21:10N 54°58' W 157°39'1 0.6 1019.8 13.2
2015-Aug-20 20:10N 54°57' W 157°39'2 0.7 1020.2 13.2
2015-Aug-20 17:10N 54°56' W 157°36'1 0.8 1021.5 13.1
2015-Aug-20 16:10N 54°56' W 157°34'1 0.5 1021.6 13.1
2015-Aug-20 15:10N 54°56' W 157°34'   1021.9 13.1

Dump ship's entire track history